Time,TemperatureF,DewpointF,PressureIn,WindDirection,WindDirectionDegrees,WindSpeedMPH,WindSpeedGustMPH,Humidity,HourlyPrecipIn,Conditions,Clouds,dailyrainin,SoftwareType,DateUTC
2018-01-16 00:08:00,36.9,33.7,30.48,ESE,113,4.0,9.0,88,0.06,,,0.00,myAcuRite,2018-01-16 06:08:00,
2018-01-16 00:13:00,36.7,33.2,30.49,ESE,113,8.0,10.0,87,0.05,,,0.00,myAcuRite,2018-01-16 06:13:00,
2018-01-16 00:26:00,36.5,33.3,30.50,SSE,158,9.0,9.0,88,0.06,,,0.02,myAcuRite,2018-01-16 06:26:00,
2018-01-16 00:33:00,36.1,32.9,30.50,SE,135,7.0,9.0,88,0.05,,,0.03,myAcuRite,2018-01-16 06:33:00,
2018-01-16 00:38:00,36.1,32.9,30.50,SSE,158,7.0,10.0,88,0.06,,,0.04,myAcuRite,2018-01-16 06:38:00,
2018-01-16 00:49:00,36.1,32.9,30.51,SSE,158,6.0,6.0,88,0.06,,,0.04,myAcuRite,2018-01-16 06:49:00,
2018-01-16 01:01:00,35.6,32.4,30.51,SE,135,4.0,7.0,88,0.04,,,0.04,myAcuRite,2018-01-16 07:01:00,
2018-01-16 01:06:00,34.9,31.7,30.52,SSE,158,8.0,11.0,88,0.05,,,0.05,myAcuRite,2018-01-16 07:06:00,
2018-01-16 01:20:00,34.2,31.0,30.53,SE,135,5.0,9.0,88,0.04,,,0.06,myAcuRite,2018-01-16 07:20:00,
2018-01-16 01:34:00,32.7,29.3,30.53,SSE,158,7.0,7.0,87,0.02,,,0.06,myAcuRite,2018-01-16 07:34:00,
2018-01-16 01:51:00,32.2,28.2,30.53,ESE,113,12.0,12.0,85,0.02,,,0.06,myAcuRite,2018-01-16 07:51:00,
2018-01-16 02:14:00,31.8,27.8,30.54,NE,45,3.0,8.0,85,0.01,,,0.06,myAcuRite,2018-01-16 08:14:00,
2018-01-16 02:27:00,31.8,27.8,30.54,South,180,4.0,9.0,85,0.00,,,0.06,myAcuRite,2018-01-16 08:27:00,
2018-01-16 02:34:00,31.6,27.9,30.54,ESE,113,4.0,11.0,86,0.00,,,0.06,myAcuRite,2018-01-16 08:34:00,
2018-01-16 02:39:00,31.6,28.2,30.55,South,180,6.0,10.0,87,0.00,,,0.06,myAcuRite,2018-01-16 08:39:00,
2018-01-16 02:44:00,31.6,27.9,30.55,SSE,158,5.0,14.0,86,0.00,,,0.06,myAcuRite,2018-01-16 08:44:00,
2018-01-16 02:55:00,31.3,26.7,30.56,ESE,113,4.0,6.0,83,0.00,,,0.06,myAcuRite,2018-01-16 08:55:00,
2018-01-16 03:03:00,31.1,26.8,30.56,SE,135,9.0,9.0,84,0.00,,,0.06,myAcuRite,2018-01-16 09:03:00,
2018-01-16 03:13:00,30.7,25.9,30.56,South,180,10.0,10.0,82,0.00,,,0.06,myAcuRite,2018-01-16 09:13:00,
2018-01-16 03:26:00,30.6,24.9,30.57,SE,135,7.0,10.0,79,0.00,,,0.06,myAcuRite,2018-01-16 09:26:00,
2018-01-16 03:37:00,30.4,24.7,30.57,SW,225,7.0,16.0,79,0.00,,,0.06,myAcuRite,2018-01-16 09:37:00,
2018-01-16 03:42:00,30.0,24.0,30.57,SSE,158,12.0,12.0,78,0.00,,,0.06,myAcuRite,2018-01-16 09:42:00,
2018-01-16 03:52:00,29.8,23.8,30.57,ESE,113,3.0,10.0,78,0.00,,,0.06,myAcuRite,2018-01-16 09:52:00,
2018-01-16 04:01:00,29.7,24.6,30.58,ENE,68,4.0,7.0,81,0.00,,,0.06,myAcuRite,2018-01-16 10:01:00,
2018-01-16 04:12:00,29.3,23.6,30.58,West,270,7.0,9.0,79,0.00,,,0.06,myAcuRite,2018-01-16 10:12:00,
2018-01-16 04:17:00,29.1,23.1,30.58,SSE,158,7.0,15.0,78,0.00,,,0.06,myAcuRite,2018-01-16 10:17:00,
2018-01-16 04:22:00,28.9,23.2,30.58,ESE,113,11.0,11.0,79,0.00,,,0.06,myAcuRite,2018-01-16 10:22:00,
2018-01-16 04:27:00,28.8,22.5,30.58,SE,135,6.0,12.0,77,0.00,,,0.06,myAcuRite,2018-01-16 10:27:00,
2018-01-16 04:37:00,28.2,21.6,30.58,ESE,113,5.0,11.0,76,0.00,,,0.06,myAcuRite,2018-01-16 10:37:00,
2018-01-16 04:50:00,27.9,20.4,30.59,SSE,158,8.0,9.0,73,0.00,,,0.06,myAcuRite,2018-01-16 10:50:00,
2018-01-16 04:56:00,27.9,20.7,30.59,SSE,158,5.0,10.0,74,0.00,,,0.06,myAcuRite,2018-01-16 10:56:00,
2018-01-16 05:01:00,27.9,21.0,30.59,South,180,10.0,11.0,75,0.00,,,0.06,myAcuRite,2018-01-16 11:01:00,
2018-01-16 05:10:00,27.9,20.7,30.60,ESE,113,5.0,12.0,74,0.00,,,0.06,myAcuRite,2018-01-16 11:10:00,
2018-01-16 05:24:00,27.3,19.5,30.60,SSE,158,8.0,9.0,72,0.00,,,0.06,myAcuRite,2018-01-16 11:24:00,
2018-01-16 05:30:00,27.0,19.2,30.60,East,90,14.0,14.0,72,0.00,,,0.06,myAcuRite,2018-01-16 11:30:00,
2018-01-16 05:38:00,27.0,19.8,30.60,ESE,113,10.0,10.0,74,0.00,,,0.06,myAcuRite,2018-01-16 11:38:00,
2018-01-16 05:46:00,27.1,20.2,30.61,SW,225,5.0,8.0,75,0.00,,,0.06,myAcuRite,2018-01-16 11:46:00,
2018-01-16 05:54:00,26.8,20.3,30.62,SSW,203,7.0,7.0,76,0.00,,,0.06,myAcuRite,2018-01-16 11:54:00,
2018-01-16 06:11:00,26.8,19.6,30.62,North,0,5.0,8.0,74,0.00,,,0.06,myAcuRite,2018-01-16 12:11:00,
2018-01-16 06:16:00,26.6,18.5,30.62,SE,135,8.0,12.0,71,0.00,,,0.06,myAcuRite,2018-01-16 12:16:00,
2018-01-16 06:24:00,26.6,18.2,30.62,SSE,158,6.0,7.0,70,0.00,,,0.06,myAcuRite,2018-01-16 12:24:00,
2018-01-16 06:30:00,26.4,18.0,30.63,South,180,2.0,7.0,70,0.00,,,0.06,myAcuRite,2018-01-16 12:30:00,
2018-01-16 06:35:00,26.4,18.3,30.62,SSE,158,5.0,7.0,71,0.00,,,0.06,myAcuRite,2018-01-16 12:35:00,
2018-01-16 06:45:00,26.4,17.3,30.64,SE,135,6.0,9.0,68,0.00,,,0.06,myAcuRite,2018-01-16 12:45:00,
2018-01-16 06:58:00,26.4,17.3,30.64,SSE,158,4.0,8.0,68,0.00,,,0.06,myAcuRite,2018-01-16 12:58:00,
2018-01-16 07:08:00,26.4,17.6,30.64,SSW,203,3.0,3.0,69,0.00,,,0.06,myAcuRite,2018-01-16 13:08:00,
2018-01-16 07:18:00,26.2,16.4,30.65,South,180,5.0,9.0,66,0.00,,,0.06,myAcuRite,2018-01-16 13:18:00,
2018-01-16 07:26:00,26.2,16.4,30.65,South,180,8.0,9.0,66,0.00,,,0.06,myAcuRite,2018-01-16 13:26:00,
2018-01-16 07:31:00,25.9,14.7,30.65,SSE,158,7.0,12.0,62,0.00,,,0.06,myAcuRite,2018-01-16 13:31:00,
2018-01-16 07:37:00,25.7,15.9,30.66,WSW,248,2.0,7.0,66,0.00,,,0.06,myAcuRite,2018-01-16 13:37:00,
2018-01-16 07:42:00,25.5,15.0,30.66,SSE,158,6.0,10.0,64,0.00,,,0.06,myAcuRite,2018-01-16 13:42:00,
2018-01-16 07:47:00,25.7,15.9,30.66,ESE,113,6.0,6.0,66,0.00,,,0.06,myAcuRite,2018-01-16 13:47:00,
2018-01-16 07:52:00,25.7,14.9,30.67,South,180,4.0,4.0,63,0.00,,,0.06,myAcuRite,2018-01-16 13:52:00,
2018-01-16 08:00:00,25.7,15.2,30.67,East,90,7.0,8.0,64,0.00,,,0.06,myAcuRite,2018-01-16 14:00:00,
2018-01-16 08:05:00,25.7,14.9,30.67,SSE,158,5.0,8.0,63,0.00,,,0.06,myAcuRite,2018-01-16 14:05:00,
2018-01-16 08:10:00,25.7,13.8,30.67,SW,225,5.0,14.0,60,0.00,,,0.06,myAcuRite,2018-01-16 14:10:00,
2018-01-16 08:17:00,25.7,13.8,30.67,ESE,113,9.0,18.0,60,0.00,,,0.06,myAcuRite,2018-01-16 14:17:00,
2018-01-16 08:24:00,25.7,14.1,30.67,SSE,158,9.0,9.0,61,0.00,,,0.06,myAcuRite,2018-01-16 14:24:00,
2018-01-16 08:29:00,25.7,13.4,30.68,ESE,113,4.0,12.0,59,0.00,,,0.06,myAcuRite,2018-01-16 14:29:00,
2018-01-16 08:37:00,25.5,13.6,30.68,South,180,6.0,10.0,60,0.00,,,0.06,myAcuRite,2018-01-16 14:37:00,
2018-01-16 08:45:00,25.5,13.9,30.69,ESE,113,3.0,8.0,61,0.00,,,0.06,myAcuRite,2018-01-16 14:45:00,
2018-01-16 08:54:00,25.3,13.0,30.70,SE,135,5.0,9.0,59,0.00,,,0.06,myAcuRite,2018-01-16 14:54:00,
2018-01-16 08:59:00,25.3,13.4,30.70,SSE,158,6.0,8.0,60,0.00,,,0.06,myAcuRite,2018-01-16 14:59:00,
2018-01-16 09:11:00,25.3,13.0,30.71,SE,135,5.0,15.0,59,0.00,,,0.06,myAcuRite,2018-01-16 15:11:00,
2018-01-16 09:16:00,25.3,12.6,30.71,ESE,113,8.0,18.0,58,0.00,,,0.06,myAcuRite,2018-01-16 15:16:00,
2018-01-16 09:31:00,25.5,13.6,30.72,SE,135,5.0,10.0,60,0.00,,,0.06,myAcuRite,2018-01-16 15:31:00,
2018-01-16 09:38:00,25.5,14.3,30.72,ESE,113,8.0,13.0,62,0.00,,,0.06,myAcuRite,2018-01-16 15:38:00,
2018-01-16 09:44:00,25.3,15.2,30.72,SSE,158,6.0,8.0,65,0.00,,,0.06,myAcuRite,2018-01-16 15:44:00,
2018-01-16 09:51:00,25.3,16.2,30.72,South,180,2.0,8.0,68,0.00,,,0.06,myAcuRite,2018-01-16 15:51:00,
2018-01-16 09:56:00,25.5,16.1,30.72,South,180,6.0,9.0,67,0.00,,,0.06,myAcuRite,2018-01-16 15:56:00,
2018-01-16 10:02:00,25.5,15.7,30.73,SSE,158,6.0,6.0,66,0.00,,,0.06,myAcuRite,2018-01-16 16:02:00,
2018-01-16 10:11:00,25.5,14.3,30.73,ESE,113,4.0,12.0,62,0.00,,,0.06,myAcuRite,2018-01-16 16:11:00,
2018-01-16 10:16:00,25.9,14.7,30.73,South,180,4.0,8.0,62,0.00,,,0.06,myAcuRite,2018-01-16 16:16:00,
2018-01-16 10:30:00,25.9,13.6,30.73,ESE,113,6.0,14.0,59,0.00,,,0.06,myAcuRite,2018-01-16 16:30:00,
2018-01-16 10:43:00,25.5,13.2,30.73,SW,225,6.0,6.0,59,0.00,,,0.06,myAcuRite,2018-01-16 16:43:00,
2018-01-16 10:54:00,25.5,13.2,30.73,SSE,158,4.0,10.0,59,0.00,,,0.06,myAcuRite,2018-01-16 16:54:00,
2018-01-16 10:59:00,25.5,13.6,30.73,SSE,158,4.0,8.0,60,0.00,,,0.06,myAcuRite,2018-01-16 16:59:00,
2018-01-16 11:06:00,25.7,13.8,30.73,South,180,5.0,8.0,60,0.00,,,0.06,myAcuRite,2018-01-16 17:06:00,
2018-01-16 11:24:00,26.1,13.8,30.73,South,180,4.0,15.0,59,0.00,,,0.06,myAcuRite,2018-01-16 17:24:00,
2018-01-16 11:29:00,26.1,14.1,30.73,ESE,113,6.0,7.0,60,0.00,,,0.06,myAcuRite,2018-01-16 17:29:00,
2018-01-16 11:37:00,25.5,12.4,30.72,South,180,5.0,10.0,57,0.00,,,0.06,myAcuRite,2018-01-16 17:37:00,
2018-01-16 11:57:00,25.5,12.0,30.72,ESE,113,7.0,7.0,56,0.00,,,0.06,myAcuRite,2018-01-16 17:57:00,
2018-01-16 12:02:00,26.1,11.8,30.72,South,180,4.0,13.0,54,0.00,,,0.06,myAcuRite,2018-01-16 18:02:00,
2018-01-16 12:07:00,26.1,11.8,30.72,SE,135,6.0,11.0,54,0.00,,,0.06,myAcuRite,2018-01-16 18:07:00,
2018-01-16 12:12:00,26.1,11.8,30.72,SSE,158,8.0,10.0,54,0.00,,,0.06,myAcuRite,2018-01-16 18:12:00,
2018-01-16 12:25:00,26.6,11.8,30.72,South,180,9.0,10.0,53,0.00,,,0.06,myAcuRite,2018-01-16 18:25:00,
2018-01-16 12:32:00,26.6,12.6,30.71,SSW,203,6.0,11.0,55,0.00,,,0.06,myAcuRite,2018-01-16 18:32:00,
2018-01-16 12:37:00,26.6,13.0,30.71,SSW,203,3.0,7.0,56,0.00,,,0.06,myAcuRite,2018-01-16 18:37:00,
2018-01-16 12:42:00,26.8,12.4,30.70,SE,135,5.0,9.0,54,0.00,,,0.06,myAcuRite,2018-01-16 18:42:00,
2018-01-16 12:56:00,26.6,11.8,30.69,SSE,158,5.0,9.0,53,0.00,,,0.06,myAcuRite,2018-01-16 18:56:00,
2018-01-16 13:02:00,26.6,11.8,30.68,SE,135,7.0,19.0,53,0.00,,,0.06,myAcuRite,2018-01-16 19:02:00,
2018-01-16 13:07:00,26.4,11.2,30.68,ENE,68,5.0,10.0,52,0.00,,,0.06,myAcuRite,2018-01-16 19:07:00,
2018-01-16 13:12:00,26.6,10.9,30.67,East,90,6.0,11.0,51,0.00,,,0.06,myAcuRite,2018-01-16 19:12:00,
2018-01-16 13:22:00,26.6,11.8,30.68,SSE,158,6.0,17.0,53,0.01,,,0.07,myAcuRite,2018-01-16 19:22:00,
2018-01-16 13:28:00,26.8,11.1,30.67,SE,135,7.0,7.0,51,0.01,,,0.07,myAcuRite,2018-01-16 19:28:00,
2018-01-16 13:33:00,26.8,11.1,30.67,SSE,158,4.0,8.0,51,0.01,,,0.07,myAcuRite,2018-01-16 19:33:00,
2018-01-16 13:43:00,27.1,11.8,30.67,SSE,158,8.0,8.0,52,0.01,,,0.07,myAcuRite,2018-01-16 19:43:00,
2018-01-16 13:48:00,27.1,11.8,30.67,SE,135,3.0,10.0,52,0.01,,,0.07,myAcuRite,2018-01-16 19:48:00,
2018-01-16 13:57:00,27.5,11.8,30.67,SE,135,2.0,7.0,51,0.01,,,0.07,myAcuRite,2018-01-16 19:57:00,
2018-01-16 14:05:00,27.3,11.6,30.67,SE,135,5.0,11.0,51,0.01,,,0.07,myAcuRite,2018-01-16 20:05:00,
2018-01-16 14:10:00,27.3,11.1,30.67,SSE,158,4.0,10.0,50,0.00,,,0.07,myAcuRite,2018-01-16 20:10:00,
2018-01-16 14:20:00,27.5,9.9,30.67,SE,135,8.0,8.0,47,0.00,,,0.07,myAcuRite,2018-01-16 20:20:00,
2018-01-16 14:32:00,27.9,11.7,30.67,SW,225,3.0,3.0,50,0.00,,,0.07,myAcuRite,2018-01-16 20:32:00,
2018-01-16 14:38:00,27.7,9.6,30.67,South,180,5.0,8.0,46,0.00,,,0.07,myAcuRite,2018-01-16 20:38:00,
2018-01-16 14:45:00,27.9,10.8,30.66,West,270,3.0,7.0,48,0.00,,,0.07,myAcuRite,2018-01-16 20:45:00,
2018-01-16 14:56:00,28.6,11.0,30.66,ESE,113,5.0,7.0,47,0.00,,,0.07,myAcuRite,2018-01-16 20:56:00,
2018-01-16 15:05:00,28.4,10.3,30.67,ESE,113,2.0,7.0,46,0.00,,,0.07,myAcuRite,2018-01-16 21:05:00,
2018-01-16 15:34:00,28.6,12.8,30.67,ESE,113,6.0,7.0,51,0.00,,,0.07,myAcuRite,2018-01-16 21:34:00,
2018-01-16 15:47:00,28.2,11.5,30.67,SSE,158,6.0,6.0,49,0.00,,,0.07,myAcuRite,2018-01-16 21:47:00,
2018-01-16 15:59:00,27.5,9.0,30.67,SE,135,6.0,7.0,45,0.00,,,0.07,myAcuRite,2018-01-16 21:59:00,
2018-01-16 16:06:00,27.5,9.5,30.67,ESE,113,9.0,9.0,46,0.00,,,0.07,myAcuRite,2018-01-16 22:06:00,
2018-01-16 16:19:00,27.7,9.6,30.67,East,90,2.0,6.0,46,0.00,,,0.07,myAcuRite,2018-01-16 22:19:00,
2018-01-16 16:32:00,27.9,9.8,30.67,SE,135,2.0,6.0,46,0.00,,,0.07,myAcuRite,2018-01-16 22:32:00,
2018-01-16 16:40:00,27.9,10.3,30.67,ESE,113,3.0,3.0,47,0.00,,,0.07,myAcuRite,2018-01-16 22:40:00,
2018-01-16 16:45:00,28.0,9.4,30.67,ESE,113,6.0,8.0,45,0.00,,,0.07,myAcuRite,2018-01-16 22:45:00,
2018-01-16 16:52:00,28.0,8.4,30.67,ESE,113,5.0,5.0,43,0.00,,,0.07,myAcuRite,2018-01-16 22:52:00,
2018-01-16 16:59:00,28.4,10.8,30.66,SE,135,3.0,6.0,47,0.00,,,0.07,myAcuRite,2018-01-16 22:59:00,
2018-01-16 17:09:00,28.0,9.4,30.67,SSE,158,4.0,6.0,45,0.00,,,0.07,myAcuRite,2018-01-16 23:09:00,
2018-01-16 17:20:00,28.0,9.9,30.66,ESE,113,4.0,6.0,46,0.00,,,0.07,myAcuRite,2018-01-16 23:20:00,
2018-01-16 17:27:00,27.7,8.7,30.67,South,180,9.0,9.0,44,0.00,,,0.07,myAcuRite,2018-01-16 23:27:00,
2018-01-16 18:00:00,27.0,9.0,30.67,SE,135,4.0,9.0,46,0.00,,,0.07,myAcuRite,2018-01-17 00:00:00,
2018-01-16 18:05:00,26.8,8.8,30.67,ESE,113,8.0,8.0,46,0.00,,,0.07,myAcuRite,2018-01-17 00:05:00,
2018-01-16 18:10:00,26.8,7.8,30.68,NNE,23,6.0,8.0,44,0.00,,,0.07,myAcuRite,2018-01-17 00:10:00,
2018-01-16 18:17:00,26.2,6.8,30.68,SE,135,7.0,11.0,43,0.00,,,0.07,myAcuRite,2018-01-17 00:17:00,
2018-01-16 18:34:00,25.9,7.5,30.69,ESE,113,4.0,10.0,45,0.00,,,0.07,myAcuRite,2018-01-17 00:34:00,
2018-01-16 18:43:00,25.5,7.1,30.69,SSW,203,7.0,11.0,45,0.00,,,0.07,myAcuRite,2018-01-17 00:43:00,
2018-01-16 18:49:00,25.7,7.3,30.69,SSE,158,4.0,8.0,45,0.00,,,0.07,myAcuRite,2018-01-17 00:49:00,
2018-01-16 18:54:00,25.5,7.6,30.70,SE,135,2.0,6.0,46,0.00,,,0.07,myAcuRite,2018-01-17 00:54:00,
2018-01-16 19:03:00,25.5,6.7,30.70,ESE,113,3.0,8.0,44,0.00,,,0.07,myAcuRite,2018-01-17 01:03:00,
2018-01-16 19:14:00,25.5,6.7,30.70,SSE,158,8.0,10.0,44,0.00,,,0.07,myAcuRite,2018-01-17 01:14:00,
2018-01-16 19:19:00,25.5,6.7,30.70,ESE,113,5.0,9.0,44,0.00,,,0.07,myAcuRite,2018-01-17 01:19:00,
2018-01-16 19:24:00,25.3,6.5,30.70,ESE,113,8.0,10.0,44,0.00,,,0.07,myAcuRite,2018-01-17 01:24:00,
2018-01-16 19:39:00,25.5,7.6,30.70,East,90,4.0,6.0,46,0.00,,,0.07,myAcuRite,2018-01-17 01:39:00,
2018-01-16 19:44:00,25.5,7.1,30.71,SE,135,4.0,7.0,45,0.00,,,0.07,myAcuRite,2018-01-17 01:44:00,
2018-01-16 19:50:00,25.5,7.6,30.71,ESE,113,2.0,7.0,46,0.00,,,0.07,myAcuRite,2018-01-17 01:50:00,
2018-01-16 19:56:00,25.7,7.8,30.71,ESE,113,2.0,2.0,46,0.00,,,0.07,myAcuRite,2018-01-17 01:56:00,
2018-01-16 20:02:00,25.7,7.8,30.71,East,90,6.0,6.0,46,0.00,,,0.07,myAcuRite,2018-01-17 02:02:00,
2018-01-16 20:10:00,25.9,7.5,30.72,SSE,158,3.0,3.0,45,0.00,,,0.07,myAcuRite,2018-01-17 02:10:00,
2018-01-16 20:21:00,25.9,8.0,30.72,SSE,158,4.0,4.0,46,0.00,,,0.07,myAcuRite,2018-01-17 02:21:00,
2018-01-16 20:32:00,25.9,7.0,30.72,ESE,113,5.0,6.0,44,0.00,,,0.07,myAcuRite,2018-01-17 02:32:00,
2018-01-16 20:38:00,25.9,8.0,30.72,ESE,113,3.0,8.0,46,0.00,,,0.07,myAcuRite,2018-01-17 02:38:00,
2018-01-16 20:47:00,25.9,8.0,30.72,ESE,113,6.0,6.0,46,0.00,,,0.07,myAcuRite,2018-01-17 02:47:00,
2018-01-16 20:53:00,26.1,8.2,30.72,SE,135,2.0,6.0,46,0.00,,,0.07,myAcuRite,2018-01-17 02:53:00,
2018-01-16 20:59:00,26.1,8.7,30.73,SSW,203,1.0,7.0,47,0.00,,,0.07,myAcuRite,2018-01-17 02:59:00,
2018-01-16 21:13:00,26.2,8.3,30.72,East,90,4.0,7.0,46,0.00,,,0.07,myAcuRite,2018-01-17 03:13:00,
2018-01-16 21:24:00,26.4,8.0,30.73,SE,135,4.0,7.0,45,0.00,,,0.07,myAcuRite,2018-01-17 03:24:00,
2018-01-16 21:33:00,26.4,8.9,30.72,SE,135,1.0,3.0,47,0.00,,,0.07,myAcuRite,2018-01-17 03:33:00,
2018-01-16 21:41:00,26.6,9.1,30.72,ESE,113,2.0,3.0,47,0.00,,,0.07,myAcuRite,2018-01-17 03:41:00,
2018-01-16 21:58:00,26.6,9.6,30.72,ESE,113,4.0,4.0,48,0.00,,,0.07,myAcuRite,2018-01-17 03:58:00,
2018-01-16 22:06:00,26.8,9.8,30.72,ESE,113,3.0,3.0,48,0.00,,,0.07,myAcuRite,2018-01-17 04:06:00,
2018-01-16 22:11:00,26.8,8.8,30.72,East,90,2.0,2.0,46,0.00,,,0.07,myAcuRite,2018-01-17 04:11:00,
2018-01-16 22:16:00,26.8,8.3,30.72,ESE,113,3.0,5.0,45,0.00,,,0.07,myAcuRite,2018-01-17 04:16:00,
2018-01-16 22:29:00,26.8,8.8,30.72,South,180,2.0,5.0,46,0.00,,,0.07,myAcuRite,2018-01-17 04:29:00,
2018-01-16 22:35:00,27.0,9.5,30.72,ESE,113,1.0,4.0,47,0.00,,,0.07,myAcuRite,2018-01-17 04:35:00,
2018-01-16 22:42:00,27.0,9.0,30.72,SE,135,1.0,3.0,46,0.00,,,0.07,myAcuRite,2018-01-17 04:42:00,
2018-01-16 22:52:00,27.1,10.0,30.72,SE,135,4.0,5.0,48,0.00,,,0.07,myAcuRite,2018-01-17 04:52:00,
2018-01-16 22:57:00,27.3,10.2,30.72,SE,135,3.0,3.0,48,0.00,,,0.07,myAcuRite,2018-01-17 04:57:00,
2018-01-16 23:02:00,27.1,9.1,30.72,South,180,2.0,5.0,46,0.00,,,0.07,myAcuRite,2018-01-17 05:02:00,
2018-01-16 23:10:00,27.1,8.6,30.72,SSE,158,4.0,7.0,45,0.00,,,0.07,myAcuRite,2018-01-17 05:10:00,
2018-01-16 23:17:00,27.0,8.0,30.72,SE,135,2.0,6.0,44,0.00,,,0.07,myAcuRite,2018-01-17 05:17:00,
2018-01-16 23:22:00,27.0,8.5,30.72,SSE,158,6.0,6.0,45,0.00,,,0.07,myAcuRite,2018-01-17 05:22:00,
2018-01-16 23:28:00,26.8,7.8,30.72,South,180,2.0,6.0,44,0.00,,,0.07,myAcuRite,2018-01-17 05:28:00,
2018-01-16 23:35:00,26.8,8.3,30.72,SSE,158,2.0,6.0,45,0.00,,,0.07,myAcuRite,2018-01-17 05:35:00,
2018-01-16 23:46:00,26.4,8.0,30.71,SE,135,7.0,7.0,45,0.00,,,0.07,myAcuRite,2018-01-17 05:46:00,
2018-01-16 23:54:00,26.2,7.8,30.72,SSE,158,3.0,5.0,45,0.00,,,0.07,myAcuRite,2018-01-17 05:54:00,